sensor_id;sensor_type;location;lat;lon;timestamp;temperature;humidity
3602;DHT22;1815;50.950;6.920;2023-04-24T00:01:48;14.90;99.90
3602;DHT22;1815;50.950;6.920;2023-04-24T00:04:13;14.80;99.90
3602;DHT22;1815;50.950;6.920;2023-04-24T00:06:42;14.80;99.90
3602;DHT22;1815;50.950;6.920;2023-04-24T00:09:09;14.80;99.90
3602;DHT22;1815;50.950;6.920;2023-04-24T00:11:35;14.80;99.90
3602;DHT22;1815;50.950;6.920;2023-04-24T00:14:01;14.80;99.90
3602;DHT22;1815;50.950;6.920;2023-04-24T00:16:27;14.80;99.90
3602;DHT22;1815;50.950;6.920;2023-04-24T00:18:53;14.80;99.90
3602;DHT22;1815;50.950;6.920;2023-04-24T00:21:19;14.80;99.90
3602;DHT22;1815;50.950;6.920;2023-04-24T00:23:45;14.80;99.90
3602;DHT22;1815;50.950;6.920;2023-04-24T00:26:10;14.80;99.90
3602;DHT22;1815;50.950;6.920;2023-04-24T00:28:36;14.80;99.90
3602;DHT22;1815;50.950;6.920;2023-04-24T00:31:03;14.70;99.90
3602;DHT22;1815;50.950;6.920;2023-04-24T00:33:28;14.70;99.90
3602;DHT22;1815;50.950;6.920;2023-04-24T00:35:54;14.70;99.90
3602;DHT22;1815;50.950;6.920;2023-04-24T00:38:20;14.70;99.90
3602;DHT22;1815;50.950;6.920;2023-04-24T00:40:48;14.70;99.90
3602;DHT22;1815;50.950;6.920;2023-04-24T00:43:16;14.70;99.90
3602;DHT22;1815;50.950;6.920;2023-04-24T00:45:42;14.70;99.90
3602;DHT22;1815;50.950;6.920;2023-04-24T00:48:08;14.70;99.90
3602;DHT22;1815;50.950;6.920;2023-04-24T00:50:36;14.70;99.90
3602;DHT22;1815;50.950;6.920;2023-04-24T00:53:02;14.70;99.90
3602;DHT22;1815;50.950;6.920;2023-04-24T00:55:28;14.70;99.90
3602;DHT22;1815;50.950;6.920;2023-04-24T00:57:57;14.70;99.90
3602;DHT22;1815;50.950;6.920;2023-04-24T01:00:22;14.60;99.90
3602;DHT22;1815;50.950;6.920;2023-04-24T01:02:49;14.60;99.90
3602;DHT22;1815;50.950;6.920;2023-04-24T01:05:33;14.60;99.90
3602;DHT22;1815;50.950;6.920;2023-04-24T01:08:00;14.60;99.90
3602;DHT22;1815;50.950;6.920;2023-04-24T01:10:27;14.60;99.90
3602;DHT22;1815;50.950;6.920;2023-04-24T01:12:54;14.60;99.90
3602;DHT22;1815;50.950;6.920;2023-04-24T01:15:20;14.50;99.90
3602;DHT22;1815;50.950;6.920;2023-04-24T01:17:46;14.50;99.90
3602;DHT22;1815;50.950;6.920;2023-04-24T01:20:13;14.50;99.90
3602;DHT22;1815;50.950;6.920;2023-04-24T01:22:40;14.50;99.90
3602;DHT22;1815;50.950;6.920;2023-04-24T01:25:06;14.50;99.90
3602;DHT22;1815;50.950;6.920;2023-04-24T01:27:32;14.40;99.90
3602;DHT22;1815;50.950;6.920;2023-04-24T01:29:58;14.40;99.90
3602;DHT22;1815;50.950;6.920;2023-04-24T01:32:24;14.40;99.90
3602;DHT22;1815;50.950;6.920;2023-04-24T01:34:50;14.40;99.90
3602;DHT22;1815;50.950;6.920;2023-04-24T01:37:16;14.40;99.90
3602;DHT22;1815;50.950;6.920;2023-04-24T01:39:43;14.30;99.90
3602;DHT22;1815;50.950;6.920;2023-04-24T01:42:09;14.30;99.90
3602;DHT22;1815;50.950;6.920;2023-04-24T01:44:35;14.20;99.90
3602;DHT22;1815;50.950;6.920;2023-04-24T01:47:03;14.10;99.90
3602;DHT22;1815;50.950;6.920;2023-04-24T01:49:29;14.10;99.90
3602;DHT22;1815;50.950;6.920;2023-04-24T01:51:55;14.00;99.90
3602;DHT22;1815;50.950;6.920;2023-04-24T01:54:20;13.90;99.90
3602;DHT22;1815;50.950;6.920;2023-04-24T01:56:46;13.90;99.90
3602;DHT22;1815;50.950;6.920;2023-04-24T01:59:12;13.80;99.90
3602;DHT22;1815;50.950;6.920;2023-04-24T02:01:39;13.70;99.90
3602;DHT22;1815;50.950;6.920;2023-04-24T02:04:06;13.60;99.90
3602;DHT22;1815;50.950;6.920;2023-04-24T02:06:34;13.60;99.90
3602;DHT22;1815;50.950;6.920;2023-04-24T02:09:00;13.50;99.90
3602;DHT22;1815;50.950;6.920;2023-04-24T02:11:27;13.40;99.90
3602;DHT22;1815;50.950;6.920;2023-04-24T02:13:53;13.40;99.90
3602;DHT22;1815;50.950;6.920;2023-04-24T02:16:19;13.30;99.90
3602;DHT22;1815;50.950;6.920;2023-04-24T02:18:45;13.20;99.90
3602;DHT22;1815;50.950;6.920;2023-04-24T02:21:10;13.10;99.90
3602;DHT22;1815;50.950;6.920;2023-04-24T02:23:36;13.00;99.90
3602;DHT22;1815;50.950;6.920;2023-04-24T02:26:02;12.90;99.90
3602;DHT22;1815;50.950;6.920;2023-04-24T02:28:28;12.80;99.90
3602;DHT22;1815;50.950;6.920;2023-04-24T02:30:53;12.70;99.90
3602;DHT22;1815;50.950;6.920;2023-04-24T02:33:21;12.60;99.90
3602;DHT22;1815;50.950;6.920;2023-04-24T02:35:47;12.50;99.90
3602;DHT22;1815;50.950;6.920;2023-04-24T02:38:13;12.40;99.90
3602;DHT22;1815;50.950;6.920;2023-04-24T02:40:38;12.30;99.90
3602;DHT22;1815;50.950;6.920;2023-04-24T02:43:04;12.20;99.90
3602;DHT22;1815;50.950;6.920;2023-04-24T02:45:30;12.20;99.90
3602;DHT22;1815;50.950;6.920;2023-04-24T02:47:55;12.10;99.90
3602;DHT22;1815;50.950;6.920;2023-04-24T02:50:21;12.10;99.90
3602;DHT22;1815;50.950;6.920;2023-04-24T02:52:47;12.10;99.90
3602;DHT22;1815;50.950;6.920;2023-04-24T02:55:13;12.10;99.90
3602;DHT22;1815;50.950;6.920;2023-04-24T02:57:40;12.20;99.90
3602;DHT22;1815;50.950;6.920;2023-04-24T03:00:06;12.20;99.90
3602;DHT22;1815;50.950;6.920;2023-04-24T03:02:32;12.20;99.90
3602;DHT22;1815;50.950;6.920;2023-04-24T03:04:59;12.30;99.90
3602;DHT22;1815;50.950;6.920;2023-04-24T03:07:25;12.30;99.90
3602;DHT22;1815;50.950;6.920;2023-04-24T03:09:50;12.30;99.90
3602;DHT22;1815;50.950;6.920;2023-04-24T03:12:16;12.40;99.90
3602;DHT22;1815;50.950;6.920;2023-04-24T03:14:46;12.40;99.90
3602;DHT22;1815;50.950;6.920;2023-04-24T03:17:12;12.40;99.90
3602;DHT22;1815;50.950;6.920;2023-04-24T03:19:38;12.50;99.90
3602;DHT22;1815;50.950;6.920;2023-04-24T03:22:08;12.50;99.90
3602;DHT22;1815;50.950;6.920;2023-04-24T03:24:35;12.50;99.90
3602;DHT22;1815;50.950;6.920;2023-04-24T03:27:01;12.50;99.90
3602;DHT22;1815;50.950;6.920;2023-04-24T03:29:45;12.50;99.90
3602;DHT22;1815;50.950;6.920;2023-04-24T03:32:11;12.50;99.90
3602;DHT22;1815;50.950;6.920;2023-04-24T03:34:38;12.50;99.90
3602;DHT22;1815;50.950;6.920;2023-04-24T03:37:03;12.60;99.90
3602;DHT22;1815;50.950;6.920;2023-04-24T03:39:31;12.50;99.90
3602;DHT22;1815;50.950;6.920;2023-04-24T03:41:57;12.50;99.90
3602;DHT22;1815;50.950;6.920;2023-04-24T03:44:30;12.50;99.90
3602;DHT22;1815;50.950;6.920;2023-04-24T03:46:57;12.50;99.90
3602;DHT22;1815;50.950;6.920;2023-04-24T03:49:23;12.40;99.90
3602;DHT22;1815;50.950;6.920;2023-04-24T03:51:49;12.40;99.90
3602;DHT22;1815;50.950;6.920;2023-04-24T03:54:22;12.40;99.90
3602;DHT22;1815;50.950;6.920;2023-04-24T03:56:49;12.30;99.90
3602;DHT22;1815;50.950;6.920;2023-04-24T03:59:16;12.30;99.90
3602;DHT22;1815;50.950;6.920;2023-04-24T04:01:45;12.30;99.90
3602;DHT22;1815;50.950;6.920;2023-04-24T04:04:14;12.30;99.90
3602;DHT22;1815;50.950;6.920;2023-04-24T04:06:41;12.30;99.90
3602;DHT22;1815;50.950;6.920;2023-04-24T04:09:08;12.30;99.90
3602;DHT22;1815;50.950;6.920;2023-04-24T04:11:35;12.30;99.90
3602;DHT22;1815;50.950;6.920;2023-04-24T04:14:01;12.30;99.90
3602;DHT22;1815;50.950;6.920;2023-04-24T04:16:27;12.30;99.90
3602;DHT22;1815;50.950;6.920;2023-04-24T04:18:59;12.30;99.90
3602;DHT22;1815;50.950;6.920;2023-04-24T04:21:25;12.30;99.90
3602;DHT22;1815;50.950;6.920;2023-04-24T04:24:00;12.30;99.90
3602;DHT22;1815;50.950;6.920;2023-04-24T04:26:32;12.30;99.90
3602;DHT22;1815;50.950;6.920;2023-04-24T04:29:02;12.30;99.90
3602;DHT22;1815;50.950;6.920;2023-04-24T04:31:30;12.30;99.90
3602;DHT22;1815;50.950;6.920;2023-04-24T04:33:59;12.30;99.90
3602;DHT22;1815;50.950;6.920;2023-04-24T04:36:25;12.30;99.90
3602;DHT22;1815;50.950;6.920;2023-04-24T04:38:58;12.30;99.90
3602;DHT22;1815;50.950;6.920;2023-04-24T04:41:45;12.30;99.90
3602;DHT22;1815;50.950;6.920;2023-04-24T04:44:16;12.30;99.90
3602;DHT22;1815;50.950;6.920;2023-04-24T04:46:42;12.40;99.90
3602;DHT22;1815;50.950;6.920;2023-04-24T04:49:17;12.40;99.90
3602;DHT22;1815;50.950;6.920;2023-04-24T04:51:44;12.40;99.90
3602;DHT22;1815;50.950;6.920;2023-04-24T04:54:10;12.50;99.90
3602;DHT22;1815;50.950;6.920;2023-04-24T04:56:37;12.50;99.90
3602;DHT22;1815;50.950;6.920;2023-04-24T04:59:03;12.50;99.90
3602;DHT22;1815;50.950;6.920;2023-04-24T05:01:29;12.50;99.90
3602;DHT22;1815;50.950;6.920;2023-04-24T05:03:55;12.50;99.90
3602;DHT22;1815;50.950;6.920;2023-04-24T05:06:21;12.60;99.90
3602;DHT22;1815;50.950;6.920;2023-04-24T05:08:48;12.60;99.90
3602;DHT22;1815;50.950;6.920;2023-04-24T05:11:27;12.60;99.90
3602;DHT22;1815;50.950;6.920;2023-04-24T05:13:54;12.60;99.90
3602;DHT22;1815;50.950;6.920;2023-04-24T05:16:27;12.70;99.90
3602;DHT22;1815;50.950;6.920;2023-04-24T05:18:56;12.70;99.90
3602;DHT22;1815;50.950;6.920;2023-04-24T05:21:27;12.70;99.90
3602;DHT22;1815;50.950;6.920;2023-04-24T05:23:54;12.70;99.90
3602;DHT22;1815;50.950;6.920;2023-04-24T05:26:33;12.70;99.90
3602;DHT22;1815;50.950;6.920;2023-04-24T05:28:59;12.70;99.90
3602;DHT22;1815;50.950;6.920;2023-04-24T05:31:25;12.80;99.90
3602;DHT22;1815;50.950;6.920;2023-04-24T05:33:51;12.80;99.90
3602;DHT22;1815;50.950;6.920;2023-04-24T05:36:17;12.70;99.90
3602;DHT22;1815;50.950;6.920;2023-04-24T05:38:43;12.80;99.90
3602;DHT22;1815;50.950;6.920;2023-04-24T05:41:09;12.80;99.90
3602;DHT22;1815;50.950;6.920;2023-04-24T05:43:35;12.80;99.90
3602;DHT22;1815;50.950;6.920;2023-04-24T05:46:01;12.70;99.90
3602;DHT22;1815;50.950;6.920;2023-04-24T05:48:27;12.70;99.90
3602;DHT22;1815;50.950;6.920;2023-04-24T05:50:52;12.70;99.90
3602;DHT22;1815;50.950;6.920;2023-04-24T05:53:18;12.70;99.90
3602;DHT22;1815;50.950;6.920;2023-04-24T05:55:45;12.70;99.90
3602;DHT22;1815;50.950;6.920;2023-04-24T05:58:11;12.70;99.90
3602;DHT22;1815;50.950;6.920;2023-04-24T06:00:38;12.70;99.90
3602;DHT22;1815;50.950;6.920;2023-04-24T06:03:07;12.70;99.90
3602;DHT22;1815;50.950;6.920;2023-04-24T06:05:34;12.70;99.90
3602;DHT22;1815;50.950;6.920;2023-04-24T06:08:02;12.70;99.90
3602;DHT22;1815;50.950;6.920;2023-04-24T06:10:32;12.80;99.90
3602;DHT22;1815;50.950;6.920;2023-04-24T06:12:58;12.80;99.90
3602;DHT22;1815;50.950;6.920;2023-04-24T06:15:30;12.80;99.90
3602;DHT22;1815;50.950;6.920;2023-04-24T06:18:05;12.70;99.90
3602;DHT22;1815;50.950;6.920;2023-04-24T06:20:31;12.70;99.90
3602;DHT22;1815;50.950;6.920;2023-04-24T06:22:57;12.70;99.90
3602;DHT22;1815;50.950;6.920;2023-04-24T06:25:25;12.70;99.90
3602;DHT22;1815;50.950;6.920;2023-04-24T06:27:52;12.70;99.90
3602;DHT22;1815;50.950;6.920;2023-04-24T06:30:17;12.60;99.90
3602;DHT22;1815;50.950;6.920;2023-04-24T06:32:43;12.60;99.90
3602;DHT22;1815;50.950;6.920;2023-04-24T06:35:09;12.50;99.90
3602;DHT22;1815;50.950;6.920;2023-04-24T06:37:38;12.50;99.90
3602;DHT22;1815;50.950;6.920;2023-04-24T06:40:05;12.50;99.90
3602;DHT22;1815;50.950;6.920;2023-04-24T06:42:31;12.40;99.90
3602;DHT22;1815;50.950;6.920;2023-04-24T06:44:57;12.30;99.90
3602;DHT22;1815;50.950;6.920;2023-04-24T06:47:22;12.30;99.90
3602;DHT22;1815;50.950;6.920;2023-04-24T06:49:48;12.20;99.90
3602;DHT22;1815;50.950;6.920;2023-04-24T06:52:16;12.10;99.90
3602;DHT22;1815;50.950;6.920;2023-04-24T06:54:42;12.00;99.90
3602;DHT22;1815;50.950;6.920;2023-04-24T06:57:08;12.00;99.90
3602;DHT22;1815;50.950;6.920;2023-04-24T06:59:34;11.90;99.90
3602;DHT22;1815;50.950;6.920;2023-04-24T07:02:00;11.80;99.90
3602;DHT22;1815;50.950;6.920;2023-04-24T07:04:26;11.80;99.90
3602;DHT22;1815;50.950;6.920;2023-04-24T07:06:52;11.70;99.90
3602;DHT22;1815;50.950;6.920;2023-04-24T07:09:21;11.70;99.90
3602;DHT22;1815;50.950;6.920;2023-04-24T07:11:47;11.60;99.90
3602;DHT22;1815;50.950;6.920;2023-04-24T07:14:13;11.60;99.90
3602;DHT22;1815;50.950;6.920;2023-04-24T07:16:39;11.60;99.90
3602;DHT22;1815;50.950;6.920;2023-04-24T07:19:06;11.50;99.90
3602;DHT22;1815;50.950;6.920;2023-04-24T07:21:32;11.50;99.90
3602;DHT22;1815;50.950;6.920;2023-04-24T07:23:58;11.50;99.90
3602;DHT22;1815;50.950;6.920;2023-04-24T07:26:25;11.40;99.90
3602;DHT22;1815;50.950;6.920;2023-04-24T07:28:51;11.40;99.90
3602;DHT22;1815;50.950;6.920;2023-04-24T07:31:17;11.40;99.90
3602;DHT22;1815;50.950;6.920;2023-04-24T07:33:43;11.30;99.90
3602;DHT22;1815;50.950;6.920;2023-04-24T07:36:08;11.30;99.90
3602;DHT22;1815;50.950;6.920;2023-04-24T07:38:41;11.30;99.90
3602;DHT22;1815;50.950;6.920;2023-04-24T07:41:07;11.20;99.90
3602;DHT22;1815;50.950;6.920;2023-04-24T07:43:33;11.20;99.90
3602;DHT22;1815;50.950;6.920;2023-04-24T07:45:59;11.20;99.90
3602;DHT22;1815;50.950;6.920;2023-04-24T07:48:25;11.10;99.90
3602;DHT22;1815;50.950;6.920;2023-04-24T07:50:52;11.00;99.90
3602;DHT22;1815;50.950;6.920;2023-04-24T07:53:18;11.00;99.90
3602;DHT22;1815;50.950;6.920;2023-04-24T07:55:43;10.90;99.90
3602;DHT22;1815;50.950;6.920;2023-04-24T07:58:09;10.90;99.90
3602;DHT22;1815;50.950;6.920;2023-04-24T08:00:35;10.90;99.90
3602;DHT22;1815;50.950;6.920;2023-04-24T08:03:01;10.80;99.90
3602;DHT22;1815;50.950;6.920;2023-04-24T08:05:27;10.80;99.90
3602;DHT22;1815;50.950;6.920;2023-04-24T08:07:54;10.70;99.90
3602;DHT22;1815;50.950;6.920;2023-04-24T08:10:24;10.60;99.90
3602;DHT22;1815;50.950;6.920;2023-04-24T08:12:50;10.60;99.90
3602;DHT22;1815;50.950;6.920;2023-04-24T08:15:16;10.50;99.90
3602;DHT22;1815;50.950;6.920;2023-04-24T08:17:42;10.40;99.90
3602;DHT22;1815;50.950;6.920;2023-04-24T08:20:09;10.40;99.90
3602;DHT22;1815;50.950;6.920;2023-04-24T08:22:41;10.30;99.90
3602;DHT22;1815;50.950;6.920;2023-04-24T08:25:09;10.30;99.90
3602;DHT22;1815;50.950;6.920;2023-04-24T08:27:34;10.20;99.90
3602;DHT22;1815;50.950;6.920;2023-04-24T08:30:03;10.10;99.90
3602;DHT22;1815;50.950;6.920;2023-04-24T08:32:28;10.10;99.90
3602;DHT22;1815;50.950;6.920;2023-04-24T08:34:55;10.00;99.90
3602;DHT22;1815;50.950;6.920;2023-04-24T08:37:26;9.90;99.90
3602;DHT22;1815;50.950;6.920;2023-04-24T08:39:52;9.90;99.90
3602;DHT22;1815;50.950;6.920;2023-04-24T08:42:19;9.80;99.90
3602;DHT22;1815;50.950;6.920;2023-04-24T08:44:45;9.80;99.90
3602;DHT22;1815;50.950;6.920;2023-04-24T08:47:11;9.80;99.90
3602;DHT22;1815;50.950;6.920;2023-04-24T08:49:38;9.80;99.90
3602;DHT22;1815;50.950;6.920;2023-04-24T08:52:05;9.80;99.90
3602;DHT22;1815;50.950;6.920;2023-04-24T08:54:33;9.80;99.90
3602;DHT22;1815;50.950;6.920;2023-04-24T08:57:00;9.80;99.90
3602;DHT22;1815;50.950;6.920;2023-04-24T08:59:30;9.80;99.90
3602;DHT22;1815;50.950;6.920;2023-04-24T09:01:56;9.80;99.90
3602;DHT22;1815;50.950;6.920;2023-04-24T09:04:23;9.80;99.90
3602;DHT22;1815;50.950;6.920;2023-04-24T09:06:55;9.80;99.90
3602;DHT22;1815;50.950;6.920;2023-04-24T09:09:22;9.80;99.90
3602;DHT22;1815;50.950;6.920;2023-04-24T09:11:49;9.80;99.90
3602;DHT22;1815;50.950;6.920;2023-04-24T09:14:16;9.80;99.90
3602;DHT22;1815;50.950;6.920;2023-04-24T09:16:42;9.80;99.90
3602;DHT22;1815;50.950;6.920;2023-04-24T09:19:08;9.80;99.90
3602;DHT22;1815;50.950;6.920;2023-04-24T09:21:34;9.80;99.90
3602;DHT22;1815;50.950;6.920;2023-04-24T09:24:06;9.90;99.90
3602;DHT22;1815;50.950;6.920;2023-04-24T09:26:35;9.90;99.90
3602;DHT22;1815;50.950;6.920;2023-04-24T09:29:01;9.90;99.90
3602;DHT22;1815;50.950;6.920;2023-04-24T09:31:29;10.00;99.90
3602;DHT22;1815;50.950;6.920;2023-04-24T09:33:57;10.00;99.90
3602;DHT22;1815;50.950;6.920;2023-04-24T09:36:31;10.10;99.90
3602;DHT22;1815;50.950;6.920;2023-04-24T09:39:04;10.10;99.90
3602;DHT22;1815;50.950;6.920;2023-04-24T09:41:32;10.20;99.90
3602;DHT22;1815;50.950;6.920;2023-04-24T09:44:11;10.20;99.90
3602;DHT22;1815;50.950;6.920;2023-04-24T09:46:37;10.30;99.90
3602;DHT22;1815;50.950;6.920;2023-04-24T09:49:14;10.40;99.90
3602;DHT22;1815;50.950;6.920;2023-04-24T09:51:40;10.40;99.90
3602;DHT22;1815;50.950;6.920;2023-04-24T09:54:20;10.60;99.90
3602;DHT22;1815;50.950;6.920;2023-04-24T09:56:47;10.60;99.90
3602;DHT22;1815;50.950;6.920;2023-04-24T09:59:15;10.70;99.90
3602;DHT22;1815;50.950;6.920;2023-04-24T10:01:41;10.80;99.90
3602;DHT22;1815;50.950;6.920;2023-04-24T10:04:26;11.00;99.90
3602;DHT22;1815;50.950;6.920;2023-04-24T10:06:54;11.00;99.90
3602;DHT22;1815;50.950;6.920;2023-04-24T10:09:22;11.10;99.90
3602;DHT22;1815;50.950;6.920;2023-04-24T10:11:50;11.20;99.90
3602;DHT22;1815;50.950;6.920;2023-04-24T10:14:19;11.30;99.90
3602;DHT22;1815;50.950;6.920;2023-04-24T10:16:46;11.40;99.90
3602;DHT22;1815;50.950;6.920;2023-04-24T10:19:15;11.50;99.90
3602;DHT22;1815;50.950;6.920;2023-04-24T10:21:43;11.60;99.90
3602;DHT22;1815;50.950;6.920;2023-04-24T10:24:13;11.70;99.90
3602;DHT22;1815;50.950;6.920;2023-04-24T10:26:40;11.80;99.90
3602;DHT22;1815;50.950;6.920;2023-04-24T10:29:06;12.00;99.90
3602;DHT22;1815;50.950;6.920;2023-04-24T10:31:36;12.00;99.90
3602;DHT22;1815;50.950;6.920;2023-04-24T10:34:03;12.10;99.90
3602;DHT22;1815;50.950;6.920;2023-04-24T10:36:30;12.20;99.90
3602;DHT22;1815;50.950;6.920;2023-04-24T10:39:00;12.30;99.90
3602;DHT22;1815;50.950;6.920;2023-04-24T10:41:26;12.30;99.90
3602;DHT22;1815;50.950;6.920;2023-04-24T10:44:05;12.40;99.90
3602;DHT22;1815;50.950;6.920;2023-04-24T10:46:31;12.40;99.90
3602;DHT22;1815;50.950;6.920;2023-04-24T10:48:57;12.50;99.90
3602;DHT22;1815;50.950;6.920;2023-04-24T10:51:24;12.50;99.90
3602;DHT22;1815;50.950;6.920;2023-04-24T10:53:51;12.50;99.90
3602;DHT22;1815;50.950;6.920;2023-04-24T10:56:17;12.50;99.90
3602;DHT22;1815;50.950;6.920;2023-04-24T10:58:45;12.60;99.90
3602;DHT22;1815;50.950;6.920;2023-04-24T11:01:30;12.80;99.90
3602;DHT22;1815;50.950;6.920;2023-04-24T11:04:02;12.90;99.90
3602;DHT22;1815;50.950;6.920;2023-04-24T11:09:14;13.10;99.90
3602;DHT22;1815;50.950;6.920;2023-04-24T11:11:45;13.10;99.90
3602;DHT22;1815;50.950;6.920;2023-04-24T11:14:14;13.10;99.90
3602;DHT22;1815;50.950;6.920;2023-04-24T11:16:54;13.10;99.90
3602;DHT22;1815;50.950;6.920;2023-04-24T11:19:26;13.00;99.90
3602;DHT22;1815;50.950;6.920;2023-04-24T11:22:01;13.00;99.90
3602;DHT22;1815;50.950;6.920;2023-04-24T11:32:34;13.00;99.90
3602;DHT22;1815;50.950;6.920;2023-04-24T11:37:46;13.10;99.90
3602;DHT22;1815;50.950;6.920;2023-04-24T11:40:14;13.10;99.90
3602;DHT22;1815;50.950;6.920;2023-04-24T11:42:44;13.10;99.90
3602;DHT22;1815;50.950;6.920;2023-04-24T11:45:21;13.20;99.90
3602;DHT22;1815;50.950;6.920;2023-04-24T11:47:47;13.30;99.90
3602;DHT22;1815;50.950;6.920;2023-04-24T11:50:21;13.40;99.90
3602;DHT22;1815;50.950;6.920;2023-04-24T11:52:48;13.60;99.90
3602;DHT22;1815;50.950;6.920;2023-04-24T11:57:43;14.10;99.90
3602;DHT22;1815;50.950;6.920;2023-04-24T12:00:16;14.20;99.90
3602;DHT22;1815;50.950;6.920;2023-04-24T12:02:42;14.20;99.90
3602;DHT22;1815;50.950;6.920;2023-04-24T12:05:08;14.20;99.90
3602;DHT22;1815;50.950;6.920;2023-04-24T12:07:41;14.30;99.90
3602;DHT22;1815;50.950;6.920;2023-04-24T12:10:10;14.40;99.90
3602;DHT22;1815;50.950;6.920;2023-04-24T12:12:35;14.60;99.90
3602;DHT22;1815;50.950;6.920;2023-04-24T12:15:06;14.80;99.90
3602;DHT22;1815;50.950;6.920;2023-04-24T12:17:33;14.90;99.90
3602;DHT22;1815;50.950;6.920;2023-04-24T12:20:07;14.90;99.90
3602;DHT22;1815;50.950;6.920;2023-04-24T12:22:44;14.90;99.90
3602;DHT22;1815;50.950;6.920;2023-04-24T12:25:17;15.00;99.90
3602;DHT22;1815;50.950;6.920;2023-04-24T12:27:44;15.10;99.90
3602;DHT22;1815;50.950;6.920;2023-04-24T12:30:15;15.20;99.90
3602;DHT22;1815;50.950;6.920;2023-04-24T12:32:48;15.20;99.90
3602;DHT22;1815;50.950;6.920;2023-04-24T12:35:22;15.20;99.90
3602;DHT22;1815;50.950;6.920;2023-04-24T12:37:49;15.30;99.90
3602;DHT22;1815;50.950;6.920;2023-04-24T12:40:15;15.50;99.90
3602;DHT22;1815;50.950;6.920;2023-04-24T12:42:49;15.50;99.90
3602;DHT22;1815;50.950;6.920;2023-04-24T12:45:16;15.60;99.90
3602;DHT22;1815;50.950;6.920;2023-04-24T12:47:43;15.70;99.90
3602;DHT22;1815;50.950;6.920;2023-04-24T12:50:13;15.70;99.90
3602;DHT22;1815;50.950;6.920;2023-04-24T12:52:40;15.70;99.90
3602;DHT22;1815;50.950;6.920;2023-04-24T12:55:06;15.60;99.90
3602;DHT22;1815;50.950;6.920;2023-04-24T12:57:38;15.50;99.90
3602;DHT22;1815;50.950;6.920;2023-04-24T13:00:08;15.30;99.90
3602;DHT22;1815;50.950;6.920;2023-04-24T13:02:34;15.20;99.90
3602;DHT22;1815;50.950;6.920;2023-04-24T13:05:01;15.20;99.90
3602;DHT22;1815;50.950;6.920;2023-04-24T13:07:27;15.20;99.90
3602;DHT22;1815;50.950;6.920;2023-04-24T13:09:54;15.30;99.90
3602;DHT22;1815;50.950;6.920;2023-04-24T13:12:21;15.40;99.90
3602;DHT22;1815;50.950;6.920;2023-04-24T13:14:47;15.40;99.90
3602;DHT22;1815;50.950;6.920;2023-04-24T13:17:12;15.50;99.90
3602;DHT22;1815;50.950;6.920;2023-04-24T13:19:41;15.50;99.90
3602;DHT22;1815;50.950;6.920;2023-04-24T13:22:09;15.50;99.90
3602;DHT22;1815;50.950;6.920;2023-04-24T13:24:36;15.50;99.90
3602;DHT22;1815;50.950;6.920;2023-04-24T13:27:03;15.40;99.90
3602;DHT22;1815;50.950;6.920;2023-04-24T13:29:29;15.50;99.90
3602;DHT22;1815;50.950;6.920;2023-04-24T13:31:55;15.50;99.90
3602;DHT22;1815;50.950;6.920;2023-04-24T13:34:25;15.60;99.90
3602;DHT22;1815;50.950;6.920;2023-04-24T13:36:55;15.60;99.90
3602;DHT22;1815;50.950;6.920;2023-04-24T13:39:22;15.70;99.90
3602;DHT22;1815;50.950;6.920;2023-04-24T13:41:48;15.70;99.90
3602;DHT22;1815;50.950;6.920;2023-04-24T13:44:15;15.80;99.90
3602;DHT22;1815;50.950;6.920;2023-04-24T13:46:41;15.80;99.90
3602;DHT22;1815;50.950;6.920;2023-04-24T13:49:09;15.90;99.90
3602;DHT22;1815;50.950;6.920;2023-04-24T13:51:34;15.90;99.90
3602;DHT22;1815;50.950;6.920;2023-04-24T13:54:00;15.90;99.90
3602;DHT22;1815;50.950;6.920;2023-04-24T13:56:26;16.00;99.90
3602;DHT22;1815;50.950;6.920;2023-04-24T13:58:52;16.00;99.90
3602;DHT22;1815;50.950;6.920;2023-04-24T14:01:19;16.00;99.90
3602;DHT22;1815;50.950;6.920;2023-04-24T14:03:49;16.10;99.90
3602;DHT22;1815;50.950;6.920;2023-04-24T14:06:16;16.20;99.90
3602;DHT22;1815;50.950;6.920;2023-04-24T14:08:41;16.30;99.90
3602;DHT22;1815;50.950;6.920;2023-04-24T14:11:07;16.40;99.90
3602;DHT22;1815;50.950;6.920;2023-04-24T14:13:33;16.40;99.90
3602;DHT22;1815;50.950;6.920;2023-04-24T14:15:58;16.40;99.90
3602;DHT22;1815;50.950;6.920;2023-04-24T14:18:24;16.40;99.90
3602;DHT22;1815;50.950;6.920;2023-04-24T14:20:50;16.50;99.90
3602;DHT22;1815;50.950;6.920;2023-04-24T14:23:15;16.40;99.90
3602;DHT22;1815;50.950;6.920;2023-04-24T14:25:41;16.40;99.90
3602;DHT22;1815;50.950;6.920;2023-04-24T14:28:07;16.40;99.90
3602;DHT22;1815;50.950;6.920;2023-04-24T14:30:33;16.40;99.90
3602;DHT22;1815;50.950;6.920;2023-04-24T14:32:58;16.40;99.90
3602;DHT22;1815;50.950;6.920;2023-04-24T14:35:24;16.40;99.90
3602;DHT22;1815;50.950;6.920;2023-04-24T14:37:51;16.50;99.90
3602;DHT22;1815;50.950;6.920;2023-04-24T14:40:16;16.50;99.90
3602;DHT22;1815;50.950;6.920;2023-04-24T14:42:42;16.50;99.90
3602;DHT22;1815;50.950;6.920;2023-04-24T14:45:08;16.50;99.90
3602;DHT22;1815;50.950;6.920;2023-04-24T14:47:35;16.50;99.90
3602;DHT22;1815;50.950;6.920;2023-04-24T14:50:02;16.40;99.90
3602;DHT22;1815;50.950;6.920;2023-04-24T14:52:28;16.40;99.90
3602;DHT22;1815;50.950;6.920;2023-04-24T14:54:54;16.40;99.90
3602;DHT22;1815;50.950;6.920;2023-04-24T14:57:20;16.40;99.90
3602;DHT22;1815;50.950;6.920;2023-04-24T14:59:45;16.50;99.90
3602;DHT22;1815;50.950;6.920;2023-04-24T15:02:11;16.50;99.90
3602;DHT22;1815;50.950;6.920;2023-04-24T15:04:37;16.60;99.90
3602;DHT22;1815;50.950;6.920;2023-04-24T15:07:03;16.60;99.90
3602;DHT22;1815;50.950;6.920;2023-04-24T15:09:29;16.70;99.90
3602;DHT22;1815;50.950;6.920;2023-04-24T15:11:57;16.70;99.90
3602;DHT22;1815;50.950;6.920;2023-04-24T15:14:23;16.60;99.90
3602;DHT22;1815;50.950;6.920;2023-04-24T15:16:48;16.50;99.90
3602;DHT22;1815;50.950;6.920;2023-04-24T15:19:14;16.50;99.90
3602;DHT22;1815;50.950;6.920;2023-04-24T15:21:40;16.60;99.90
3602;DHT22;1815;50.950;6.920;2023-04-24T15:24:08;16.50;99.90
3602;DHT22;1815;50.950;6.920;2023-04-24T15:26:34;16.50;99.90
3602;DHT22;1815;50.950;6.920;2023-04-24T15:28:59;16.60;99.90
3602;DHT22;1815;50.950;6.920;2023-04-24T15:31:25;16.50;99.90
3602;DHT22;1815;50.950;6.920;2023-04-24T15:33:51;16.50;99.90
3602;DHT22;1815;50.950;6.920;2023-04-24T15:36:17;16.40;99.90
3602;DHT22;1815;50.950;6.920;2023-04-24T15:38:44;16.40;99.90
3602;DHT22;1815;50.950;6.920;2023-04-24T15:41:10;16.30;99.90
3602;DHT22;1815;50.950;6.920;2023-04-24T15:43:36;16.30;99.90
3602;DHT22;1815;50.950;6.920;2023-04-24T15:46:04;16.30;99.90
3602;DHT22;1815;50.950;6.920;2023-04-24T15:48:30;16.30;99.90
3602;DHT22;1815;50.950;6.920;2023-04-24T15:50:56;16.30;99.90
3602;DHT22;1815;50.950;6.920;2023-04-24T15:53:22;16.30;99.90
3602;DHT22;1815;50.950;6.920;2023-04-24T15:55:49;16.30;99.90
3602;DHT22;1815;50.950;6.920;2023-04-24T15:58:14;16.20;99.90
3602;DHT22;1815;50.950;6.920;2023-04-24T16:00:40;16.20;99.90
3602;DHT22;1815;50.950;6.920;2023-04-24T16:03:06;16.20;99.90
3602;DHT22;1815;50.950;6.920;2023-04-24T16:05:32;16.10;99.90
3602;DHT22;1815;50.950;6.920;2023-04-24T16:07:58;16.00;99.90
3602;DHT22;1815;50.950;6.920;2023-04-24T16:10:24;15.90;99.90
3602;DHT22;1815;50.950;6.920;2023-04-24T16:12:50;15.90;99.90
3602;DHT22;1815;50.950;6.920;2023-04-24T16:15:18;15.90;99.90
3602;DHT22;1815;50.950;6.920;2023-04-24T16:17:43;15.90;99.90
3602;DHT22;1815;50.950;6.920;2023-04-24T16:20:11;15.90;99.90